If you wish to contribute or participate in the discussions about articles you are invited to join SKYbrary as a registered user

 Actions

Olympic Dam Airport

From SKYbrary Wiki

YOLD
Airport
ICAO: YOLD – IATA: OLP
Summary
Name Olympic Dam Airport
Region Asia and Pacific
Territory Australia AU.gif
Location Olympic Dam, South Australia
Serving Olympic Dam
Elevation 104.546 m
343 ft
343 ft104.546 m
Type small airport
Coordinates 30° 29' 6.00" S, 136° 52' 37.20" E
Runways
Designator Length Width Surface ROPS
6/24 1591 m5,219.816 ft
30 m98.425 ft
ASP /


METAR
Observation YOLD 161400Z AUTO 01007KT 9999 // NCD 24/06 Q1017
Station Olympic Dam Airport
Date/Time 16 April 2019 14:00:00
Wind direction 10°
Wind speed 07 kts
Lowest cloud amount no clouds detected
Temperature 24°C
Dew point 6°C
Humidity 31%
QNH 1017 hPa
Weather condition n/a